createdAt,value
2019-06-10T00:00:24.206Z,57.10
2019-06-10T00:03:15.334Z,57.10
2019-06-10T00:06:07.051Z,57.10
2019-06-10T00:08:58.122Z,56.80
2019-06-10T00:11:51.294Z,56.90
2019-06-10T00:14:41.808Z,57.00
2019-06-10T00:17:33.915Z,56.80
2019-06-10T00:20:24.276Z,56.90
2019-06-10T00:23:14.135Z,56.80
2019-06-10T00:26:07.532Z,57.00
2019-06-10T00:28:56.536Z,57.10
2019-06-10T00:31:46.947Z,57.30
2019-06-10T00:34:37.057Z,57.20
2019-06-10T00:37:26.954Z,57.40
2019-06-10T00:40:21.282Z,57.30
2019-06-10T00:43:13.119Z,57.40
2019-06-10T00:46:04.319Z,57.40
2019-06-10T00:48:54.792Z,57.20
2019-06-10T00:51:45.507Z,57.20
2019-06-10T00:54:36.368Z,57.20
2019-06-10T00:57:26.510Z,57.20
2019-06-10T01:00:25.254Z,57.10
2019-06-10T01:03:11.628Z,57.20
2019-06-10T01:06:02.954Z,57.20
2019-06-10T01:08:53.043Z,57.30
2019-06-10T01:11:43.098Z,57.40
2019-06-10T01:14:33.523Z,57.30
2019-06-10T01:17:24.098Z,57.50
2019-06-10T01:20:16.104Z,57.70
2019-06-10T01:23:07.016Z,57.70
2019-06-10T01:25:57.262Z,57.70
2019-06-10T01:28:47.446Z,57.80
2019-06-10T01:31:37.465Z,57.70
2019-06-10T01:34:27.935Z,57.90
2019-06-10T01:37:21.564Z,57.90
2019-06-10T01:40:13.471Z,58.10
2019-06-10T01:43:02.678Z,58.10
2019-06-10T01:45:52.727Z,58.00
2019-06-10T01:48:47.969Z,58.10
2019-06-10T01:51:35.371Z,58.20
2019-06-10T01:54:25.827Z,58.20
2019-06-10T01:57:17.313Z,58.20
2019-06-10T02:00:15.925Z,58.20
2019-06-10T02:03:03.666Z,58.40
2019-06-10T02:05:53.884Z,58.40
2019-06-10T02:08:44.135Z,58.30
2019-06-10T02:11:35.798Z,58.40
2019-06-10T02:14:25.689Z,58.50
2019-06-10T02:17:17.643Z,58.70
2019-06-10T02:20:08.024Z,58.60
2019-06-10T02:22:58.941Z,58.70
2019-06-10T02:25:51.288Z,58.70
2019-06-10T02:28:41.428Z,58.70
2019-06-10T02:31:37.298Z,58.80
2019-06-10T02:34:27.308Z,58.80
2019-06-10T02:37:19.158Z,58.80
2019-06-10T02:40:07.123Z,58.80
2019-06-10T02:42:58.944Z,58.90
2019-06-10T02:45:49.186Z,58.90
2019-06-10T02:48:39.394Z,59.00
2019-06-10T02:51:32.198Z,59.10
2019-06-10T02:54:28.889Z,59.10
2019-06-10T02:57:14.652Z,59.10
2019-06-10T03:00:19.849Z,59.20
2019-06-10T03:03:03.912Z,59.30
2019-06-10T03:05:53.811Z,59.20
2019-06-10T03:08:44.739Z,59.10
2019-06-10T03:11:37.252Z,59.20
2019-06-10T03:14:28.200Z,59.30
2019-06-10T03:17:23.185Z,59.40
2019-06-10T03:20:12.442Z,59.50
2019-06-10T03:23:03.542Z,59.50
2019-06-10T03:26:04.145Z,59.50
2019-06-10T03:28:53.311Z,59.70
2019-06-10T03:31:48.050Z,59.60
2019-06-10T03:34:41.568Z,59.60
2019-06-10T03:37:27.768Z,59.60
2019-06-10T03:40:18.624Z,59.60
2019-06-10T03:43:11.839Z,59.70
2019-06-10T03:46:02.999Z,59.80
2019-06-10T03:48:53.916Z,59.80
2019-06-10T03:51:43.882Z,59.70
2019-06-10T03:54:34.565Z,59.70
2019-06-10T03:57:26.943Z,59.80
2019-06-10T04:00:17.553Z,59.90
2019-06-10T04:03:08.606Z,59.90
2019-06-10T04:05:59.019Z,60.10
2019-06-10T04:08:48.890Z,60.30
2019-06-10T04:11:42.842Z,60.50
2019-06-10T04:14:32.741Z,60.50
2019-06-10T04:17:25.335Z,60.50
2019-06-10T04:20:17.759Z,60.50
2019-06-10T04:23:08.759Z,60.40
2019-06-10T04:25:58.680Z,60.50
2019-06-10T04:28:49.769Z,60.60
2019-06-10T04:31:42.531Z,60.70
2019-06-10T04:34:33.565Z,60.70
2019-06-10T04:37:26.170Z,60.80
2019-06-10T04:40:16.507Z,61.00
2019-06-10T04:43:07.626Z,61.00
2019-06-10T04:45:58.841Z,61.20
2019-06-10T04:48:52.771Z,61.30
2019-06-10T04:51:43.514Z,61.20
2019-06-10T04:54:33.616Z,61.30
2019-06-10T04:57:25.326Z,61.30
2019-06-10T05:00:15.151Z,61.30
2019-06-10T05:03:05.640Z,61.20
2019-06-10T05:05:56.595Z,61.30
2019-06-10T05:08:46.658Z,61.50
2019-06-10T05:11:37.685Z,61.60
2019-06-10T05:14:30.081Z,61.60
2019-06-10T05:17:21.490Z,61.60
2019-06-10T05:20:12.718Z,61.70
2019-06-10T05:23:03.664Z,61.60
2019-06-10T05:25:56.221Z,61.70
2019-06-10T05:28:46.636Z,61.80
2019-06-10T05:31:37.811Z,61.70
2019-06-10T05:34:28.741Z,61.60
2019-06-10T05:37:23.311Z,61.60
2019-06-10T05:40:13.020Z,61.30
2019-06-10T05:43:03.528Z,61.40
2019-06-10T05:45:54.799Z,61.40
2019-06-10T05:48:45.533Z,61.30
2019-06-10T05:51:36.099Z,61.50
2019-06-10T05:54:27.575Z,61.60
2019-06-10T05:57:17.826Z,61.70
2019-06-10T06:00:13.958Z,61.60
2019-06-10T06:03:02.741Z,61.70
2019-06-10T06:05:53.610Z,61.50
2019-06-10T06:08:43.919Z,61.70
2019-06-10T06:11:35.233Z,61.80
2019-06-10T06:14:25.622Z,62.00
2019-06-10T06:17:16.901Z,61.80
2019-06-10T06:20:08.193Z,62.00
2019-06-10T06:22:58.439Z,62.00
2019-06-10T06:25:48.431Z,62.10
2019-06-10T06:28:38.853Z,62.10
2019-06-10T06:31:30.796Z,62.20
2019-06-10T06:34:22.631Z,62.20
2019-06-10T06:37:13.534Z,62.10
2019-06-10T06:40:04.574Z,62.30
2019-06-10T06:42:55.436Z,62.30
2019-06-10T06:45:45.823Z,62.20
2019-06-10T06:48:39.103Z,62.20
2019-06-10T06:51:40.067Z,62.30
2019-06-10T06:54:23.012Z,62.40
2019-06-10T06:57:13.687Z,62.40
2019-06-10T07:00:33.883Z,62.50
2019-06-10T07:02:56.224Z,62.80
2019-06-10T07:05:47.229Z,62.80
2019-06-10T07:08:39.282Z,62.70
2019-06-10T07:11:32.952Z,62.40
2019-06-10T07:14:23.824Z,62.70
2019-06-10T07:17:15.641Z,62.70
2019-06-10T07:20:06.813Z,62.90
2019-06-10T07:22:57.582Z,62.70
2019-06-10T07:25:49.062Z,62.50
2019-06-10T07:28:40.936Z,62.20
2019-06-10T07:31:33.575Z,62.30
2019-06-10T07:34:23.630Z,62.30
2019-06-10T07:37:14.729Z,62.10
2019-06-10T07:40:05.396Z,62.10
2019-06-10T07:42:55.687Z,62.00
2019-06-10T07:45:48.135Z,61.90
2019-06-10T07:48:41.067Z,61.70
2019-06-10T07:51:32.903Z,61.70
2019-06-10T07:54:23.242Z,61.90
2019-06-10T07:57:14.029Z,61.90
2019-06-10T08:00:04.939Z,62.00
2019-06-10T08:02:56.029Z,62.00
2019-06-10T08:05:46.731Z,62.20
2019-06-10T08:08:38.923Z,62.20
2019-06-10T08:11:30.022Z,62.30
2019-06-10T08:14:22.297Z,62.40
2019-06-10T08:17:12.985Z,62.30
2019-06-10T08:20:04.135Z,62.30
2019-06-10T08:22:57.762Z,62.00
2019-06-10T08:25:53.297Z,61.80
2019-06-10T08:28:39.657Z,61.70
2019-06-10T08:31:33.016Z,61.90
2019-06-10T08:34:22.366Z,61.90
2019-06-10T08:37:13.684Z,62.10
2019-06-10T08:40:05.418Z,62.10
2019-06-10T08:42:56.383Z,62.10
2019-06-10T08:45:48.431Z,62.10
2019-06-10T08:48:41.107Z,62.20
2019-06-10T08:51:32.571Z,62.00
2019-06-10T08:54:23.917Z,62.00
2019-06-10T08:57:14.440Z,62.10
2019-06-10T09:00:11.663Z,62.30
2019-06-10T09:02:59.494Z,62.40
2019-06-10T09:05:51.026Z,62.40
2019-06-10T09:08:45.403Z,62.40
2019-06-10T09:11:34.880Z,62.40
2019-06-10T09:14:26.166Z,62.40
2019-06-10T09:17:17.259Z,62.10
2019-06-10T09:20:08.398Z,62.30
2019-06-10T09:23:16.826Z,62.20
2019-06-10T09:25:54.503Z,62.00
2019-06-10T09:28:47.137Z,61.70
2019-06-10T09:31:34.844Z,61.90
2019-06-10T09:34:24.883Z,61.70
2019-06-10T09:37:15.977Z,61.60
2019-06-10T09:40:07.771Z,61.70
2019-06-10T09:42:59.120Z,61.50
2019-06-10T09:45:51.412Z,61.60
2019-06-10T09:48:47.096Z,61.70
2019-06-10T09:51:34.561Z,62.10
2019-06-10T09:54:25.407Z,61.90
2019-06-10T09:57:16.093Z,61.60
2019-06-10T10:00:12.295Z,61.70
2019-06-10T10:03:03.478Z,61.80
2019-06-10T10:06:08.122Z,61.30
2019-06-10T10:08:52.652Z,61.10
2019-06-10T10:11:38.433Z,61.30
2019-06-10T10:14:29.153Z,61.50
2019-06-10T10:17:19.169Z,61.70
2019-06-10T10:20:12.217Z,61.40
2019-06-10T10:23:02.844Z,61.40
2019-06-10T10:25:57.000Z,61.30
2019-06-10T10:28:49.886Z,61.30
2019-06-10T10:31:38.330Z,61.40
2019-06-10T10:34:28.422Z,61.40
2019-06-10T10:37:18.969Z,61.10
2019-06-10T10:40:12.169Z,61.40
2019-06-10T10:43:22.426Z,60.70
2019-06-10T10:46:00.163Z,60.60
2019-06-10T10:48:47.078Z,60.50
2019-06-10T10:51:37.465Z,60.40
2019-06-10T10:54:34.102Z,59.80
2019-06-10T10:57:19.632Z,60.00
2019-06-10T11:00:12.399Z,60.40
2019-06-10T11:03:03.977Z,60.30
2019-06-10T11:06:00.543Z,60.20
2019-06-10T11:08:48.317Z,60.20
2019-06-10T11:11:44.047Z,59.80
2019-06-10T11:14:34.095Z,59.20
2019-06-10T11:17:25.798Z,59.50
2019-06-10T11:20:24.162Z,59.30
2019-06-10T11:23:15.209Z,59.50
2019-06-10T11:26:05.985Z,59.50
2019-06-10T11:28:57.894Z,59.50
2019-06-10T11:31:48.448Z,59.60
2019-06-10T11:34:38.967Z,59.60
2019-06-10T11:37:29.379Z,59.50
2019-06-10T11:40:19.650Z,60.00
2019-06-10T11:43:09.888Z,60.40
2019-06-10T11:46:06.810Z,60.30
2019-06-10T11:48:55.605Z,60.10
2019-06-10T11:51:44.630Z,60.00
2019-06-10T11:54:50.565Z,59.60
2019-06-10T11:57:26.504Z,59.30
2019-06-10T12:00:18.038Z,59.30
2019-06-10T12:03:07.950Z,59.30
2019-06-10T12:06:01.094Z,59.50
2019-06-10T12:08:54.085Z,59.10
2019-06-10T12:11:43.915Z,58.90
2019-06-10T12:14:34.269Z,59.00
2019-06-10T12:17:41.550Z,59.10
2019-06-10T12:20:16.923Z,59.00
2019-06-10T12:23:07.139Z,59.20
2019-06-10T12:25:39.891Z,58.80
2019-06-10T12:28:13.000Z,58.70
2019-06-10T12:30:45.482Z,59.10
2019-06-10T12:33:21.642Z,58.50
2019-06-10T12:35:57.563Z,58.10
2019-06-10T12:38:26.125Z,57.60
2019-06-10T12:41:00.647Z,57.90
2019-06-10T12:43:32.798Z,58.10
2019-06-10T12:46:06.204Z,58.20
2019-06-10T12:48:38.686Z,57.80
2019-06-10T12:51:13.488Z,58.00
2019-06-10T12:53:45.350Z,57.80
2019-06-10T12:56:17.715Z,58.00
2019-06-10T12:58:50.204Z,58.10
2019-06-10T13:01:22.670Z,57.90
2019-06-10T13:03:55.591Z,57.80
2019-06-10T13:06:28.062Z,57.80
2019-06-10T13:09:03.662Z,57.50
2019-06-10T13:11:35.488Z,57.40
2019-06-10T13:14:08.579Z,57.10
2019-06-10T13:16:43.142Z,57.10
2019-06-10T13:19:15.180Z,57.10
2019-06-10T13:21:48.064Z,56.80
2019-06-10T13:24:22.456Z,56.90
2019-06-10T13:26:54.609Z,57.40
2019-06-10T13:29:27.111Z,57.20
2019-06-10T13:32:00.701Z,57.50
2019-06-10T13:34:33.676Z,57.70
2019-06-10T13:37:08.203Z,57.60
2019-06-10T13:39:40.307Z,57.60
2019-06-10T13:42:13.612Z,57.50
2019-06-10T13:44:46.804Z,57.80
2019-06-10T13:47:24.916Z,58.10
2019-06-10T13:49:55.081Z,58.20
2019-06-10T13:52:27.553Z,58.60
2019-06-10T13:55:01.283Z,58.50
2019-06-10T13:57:34.046Z,58.50
2019-06-10T14:00:08.456Z,58.50
2019-06-10T14:02:42.965Z,58.70
2019-06-10T14:05:18.330Z,58.60
2019-06-10T14:07:49.118Z,58.30
2019-06-10T14:10:22.636Z,58.20
2019-06-10T14:12:55.094Z,58.60
2019-06-10T14:15:27.517Z,58.70
2019-06-10T14:18:01.162Z,59.00
2019-06-10T14:20:36.661Z,59.00
2019-06-10T14:23:10.112Z,58.90
2019-06-10T14:25:43.562Z,58.60
2019-06-10T14:28:34.833Z,58.80
2019-06-10T14:30:50.161Z,59.00
2019-06-10T14:33:23.226Z,58.20
2019-06-10T14:35:58.129Z,58.40
2019-06-10T14:38:32.527Z,58.40
2019-06-10T14:41:05.316Z,58.60
2019-06-10T14:43:39.290Z,58.60
2019-06-10T14:46:15.593Z,58.80
2019-06-10T14:48:47.337Z,58.90
2019-06-10T14:51:22.754Z,58.80
2019-06-10T14:53:54.974Z,58.70
2019-06-10T14:56:28.036Z,58.80
2019-06-10T14:59:02.844Z,58.90
2019-06-10T15:01:35.804Z,59.10
2019-06-10T15:04:10.103Z,59.00
2019-06-10T15:06:43.399Z,59.20
2019-06-10T15:09:16.659Z,59.30
2019-06-10T15:11:52.037Z,59.40
2019-06-10T15:14:24.286Z,59.60
2019-06-10T15:16:57.358Z,59.40
2019-06-10T15:19:33.413Z,59.60
2019-06-10T15:22:07.608Z,59.70
2019-06-10T15:24:42.754Z,59.50
2019-06-10T15:27:24.740Z,59.40
2019-06-10T15:29:52.571Z,59.20
2019-06-10T15:32:34.676Z,59.30
2019-06-10T15:35:06.747Z,59.30
2019-06-10T15:37:39.759Z,59.50
2019-06-10T15:40:14.000Z,59.40
2019-06-10T15:42:47.402Z,59.70
2019-06-10T15:45:21.101Z,59.80
2019-06-10T15:47:53.568Z,59.70
2019-06-10T15:50:27.602Z,59.70
2019-06-10T15:53:00.069Z,60.00
2019-06-10T15:56:04.993Z,59.90
2019-06-10T15:58:06.762Z,60.00
2019-06-10T16:00:39.167Z,59.80
2019-06-10T16:03:14.328Z,60.00
2019-06-10T16:05:45.949Z,59.90
2019-06-10T16:08:18.601Z,59.90
2019-06-10T16:10:52.690Z,60.10
2019-06-10T16:13:26.012Z,59.80
2019-06-10T16:15:58.446Z,59.80
2019-06-10T16:18:32.895Z,59.90
2019-06-10T16:21:04.928Z,59.90
2019-06-10T16:23:37.422Z,60.00
2019-06-10T16:26:09.885Z,60.00
2019-06-10T16:28:42.815Z,59.90
2019-06-10T16:31:16.675Z,59.90
2019-06-10T16:33:49.733Z,60.30
2019-06-10T16:36:25.791Z,60.00
2019-06-10T16:38:56.338Z,60.30
2019-06-10T16:41:28.740Z,60.20
2019-06-10T16:44:02.974Z,60.30
2019-06-10T16:46:35.540Z,60.40
2019-06-10T16:49:07.938Z,60.50
2019-06-10T16:51:42.739Z,60.60
2019-06-10T16:54:14.349Z,60.80
2019-06-10T16:56:48.788Z,60.70
2019-06-10T16:59:23.982Z,60.90
2019-06-10T17:01:55.372Z,60.80
2019-06-10T17:04:30.732Z,60.90
2019-06-10T17:07:03.033Z,60.90
2019-06-10T17:09:35.456Z,60.90
2019-06-10T17:12:07.903Z,60.90
2019-06-10T17:14:42.783Z,60.90
2019-06-10T17:17:14.436Z,60.60
2019-06-10T17:19:46.930Z,60.90
2019-06-10T17:22:19.389Z,60.70
2019-06-10T17:24:53.683Z,60.90
2019-06-10T17:27:26.721Z,60.80
2019-06-10T17:30:02.822Z,60.60
2019-06-10T17:32:36.143Z,60.50
2019-06-10T17:35:08.554Z,60.50
2019-06-10T17:37:43.081Z,60.50
2019-06-10T17:40:15.225Z,60.50
2019-06-10T17:42:47.745Z,60.60
2019-06-10T17:45:24.341Z,60.70
2019-06-10T17:47:55.488Z,60.70
2019-06-10T17:50:28.106Z,60.70
2019-06-10T17:53:02.603Z,60.90
2019-06-10T17:55:35.696Z,60.90
2019-06-10T17:58:08.220Z,60.90
2019-06-10T18:00:42.192Z,60.90
2019-06-10T18:03:14.747Z,60.90
2019-06-10T18:05:47.229Z,61.00
2019-06-10T18:08:19.710Z,60.90
2019-06-10T18:10:53.634Z,60.90
2019-06-10T18:13:26.480Z,60.80
2019-06-10T18:16:02.766Z,61.00
2019-06-10T18:18:37.189Z,61.00
2019-06-10T18:21:09.526Z,61.00
2019-06-10T18:23:43.574Z,60.70
2019-06-10T18:26:16.219Z,61.00
2019-06-10T18:29:08.534Z,60.90
2019-06-10T18:31:23.343Z,60.90
2019-06-10T18:33:55.966Z,61.10
2019-06-10T18:36:28.459Z,61.30
2019-06-10T18:39:02.955Z,61.30
2019-06-10T18:41:35.604Z,61.40
2019-06-10T18:44:19.914Z,61.50
2019-06-10T18:46:43.252Z,61.30
2019-06-10T18:49:17.069Z,61.10
2019-06-10T18:51:49.560Z,61.10
2019-06-10T18:54:22.595Z,61.10
2019-06-10T18:56:55.199Z,61.30
2019-06-10T18:59:28.075Z,61.50
2019-06-10T19:02:03.858Z,61.40
2019-06-10T19:04:36.496Z,61.20
2019-06-10T19:07:08.894Z,61.40
2019-06-10T19:09:47.618Z,61.50
2019-06-10T19:12:15.544Z,61.50
2019-06-10T19:14:48.045Z,61.50
2019-06-10T19:17:22.563Z,61.40
2019-06-10T19:20:09.689Z,61.60
2019-06-10T19:22:43.187Z,61.80
2019-06-10T19:25:15.775Z,61.90
2019-06-10T19:27:48.260Z,62.10
2019-06-10T19:30:23.156Z,61.90
2019-06-10T19:32:56.098Z,61.90
2019-06-10T19:35:28.581Z,61.90
2019-06-10T19:38:02.212Z,62.00
2019-06-10T19:40:35.629Z,61.90
2019-06-10T19:43:08.917Z,62.20
2019-06-10T19:45:42.540Z,62.20
2019-06-10T19:48:15.150Z,62.30
2019-06-10T19:50:53.068Z,62.20
2019-06-10T19:53:23.761Z,62.00
2019-06-10T19:55:56.169Z,62.10
2019-06-10T19:58:46.268Z,62.20
2019-06-10T20:01:18.076Z,62.00
2019-06-10T20:03:52.066Z,62.30
2019-06-10T20:06:24.659Z,62.20
2019-06-10T20:08:57.101Z,62.00
2019-06-10T20:11:32.065Z,62.00
2019-06-10T20:14:03.959Z,62.00
2019-06-10T20:16:38.064Z,62.20
2019-06-10T20:19:12.832Z,62.40
2019-06-10T20:21:46.567Z,62.40
2019-06-10T20:24:22.382Z,62.20
2019-06-10T20:26:54.850Z,62.10
2019-06-10T20:29:27.460Z,61.90
2019-06-10T20:31:59.862Z,61.70
2019-06-10T20:34:32.513Z,62.00
2019-06-10T20:37:05.032Z,62.10
2019-06-10T20:39:37.908Z,62.30
2019-06-10T20:42:12.763Z,62.00
2019-06-10T20:44:45.949Z,61.90
2019-06-10T20:47:18.493Z,62.00
2019-06-10T20:49:55.606Z,62.10
2019-06-10T20:52:25.239Z,61.90
2019-06-10T20:54:57.754Z,61.60
2019-06-10T20:57:30.317Z,61.90
2019-06-10T21:00:16.054Z,61.90
2019-06-10T21:02:38.950Z,61.70
2019-06-10T21:05:13.349Z,61.70
2019-06-10T21:07:47.247Z,61.70
2019-06-10T21:10:26.108Z,61.90
2019-06-10T21:12:58.565Z,61.90
2019-06-10T21:15:34.341Z,61.70
2019-06-10T21:18:06.819Z,61.70
2019-06-10T21:20:41.287Z,61.70
2019-06-10T21:23:16.037Z,61.60
2019-06-10T21:25:49.437Z,61.70
2019-06-10T21:28:21.798Z,61.80
2019-06-10T21:30:58.932Z,61.60
2019-06-10T21:33:33.310Z,61.60
2019-06-10T21:36:05.638Z,61.60
2019-06-10T21:38:38.088Z,61.60
2019-06-10T21:41:12.304Z,61.60
2019-06-10T21:43:48.330Z,61.50
2019-06-10T21:46:18.930Z,61.50
2019-06-10T21:48:53.217Z,61.50
2019-06-10T21:51:25.518Z,61.50
2019-06-10T21:53:59.525Z,61.50
2019-06-10T21:56:32.760Z,61.70
2019-06-10T21:59:05.472Z,61.70
2019-06-10T22:01:37.975Z,61.80
2019-06-10T22:04:13.219Z,62.00
2019-06-10T22:07:24.508Z,62.10
2019-06-10T22:09:57.010Z,62.10
2019-06-10T22:12:29.470Z,62.00
2019-06-10T22:15:01.886Z,62.00
2019-06-10T22:17:35.402Z,62.00
2019-06-10T22:20:08.785Z,62.00
2019-06-10T22:22:42.854Z,62.10
2019-06-10T22:25:16.411Z,62.10
2019-06-10T22:27:49.965Z,62.10
2019-06-10T22:30:22.931Z,62.20
2019-06-10T22:32:57.815Z,62.20
2019-06-10T22:35:29.479Z,62.20
2019-06-10T22:38:02.506Z,62.30
2019-06-10T22:40:35.116Z,62.30
2019-06-10T22:43:07.779Z,62.40
2019-06-10T22:45:42.484Z,62.40
2019-06-10T22:48:14.650Z,62.50
2019-06-10T22:50:47.122Z,62.60
2019-06-10T22:53:19.581Z,62.60
2019-06-10T22:55:53.449Z,62.60
2019-06-10T22:58:26.060Z,62.60
2019-06-10T23:00:58.487Z,62.90
2019-06-10T23:03:30.940Z,62.90
2019-06-10T23:06:03.439Z,63.00
2019-06-10T23:08:35.970Z,63.00
2019-06-10T23:11:08.470Z,63.00
2019-06-10T23:13:42.400Z,63.10
2019-06-10T23:16:14.832Z,63.10
2019-06-10T23:18:47.292Z,63.00
2019-06-10T23:21:19.769Z,62.90
2019-06-10T23:23:53.909Z,63.10
2019-06-10T23:26:26.325Z,63.10
2019-06-10T23:28:58.880Z,63.10
2019-06-10T23:31:40.521Z,63.00
2019-06-10T23:34:06.515Z,62.90
2019-06-10T23:36:38.926Z,63.00
2019-06-10T23:39:13.185Z,63.00
2019-06-10T23:41:45.616Z,63.10
2019-06-10T23:44:17.844Z,63.30
2019-06-10T23:46:51.107Z,63.20
2019-06-10T23:49:23.557Z,63.10
2019-06-10T23:51:57.273Z,63.10
2019-06-10T23:54:32.302Z,63.10
2019-06-10T23:57:05.972Z,63.10
2019-06-10T23:59:38.440Z,63.10
